sensor_id;sensor_type;location;lat;lon;timestamp;temperature;humidity
8436;DHT22;4255;48.730;9.156;2022-09-09T00:04:31;17.10;99.90
8436;DHT22;4255;48.730;9.156;2022-09-09T00:09:27;17.00;99.90
8436;DHT22;4255;48.730;9.156;2022-09-09T00:12:09;17.00;99.90
8436;DHT22;4255;48.730;9.156;2022-09-09T00:14:54;16.80;99.90
8436;DHT22;4255;48.730;9.156;2022-09-09T00:23:25;16.90;99.90
8436;DHT22;4255;48.730;9.156;2022-09-09T00:26:08;16.90;99.90
8436;DHT22;4255;48.730;9.156;2022-09-09T00:29:56;16.80;99.90
8436;DHT22;4255;48.730;9.156;2022-09-09T00:31:51;16.80;99.90
8436;DHT22;4255;48.730;9.156;2022-09-09T00:34:21;16.90;99.90
8436;DHT22;4255;48.730;9.156;2022-09-09T00:36:50;16.90;99.90
8436;DHT22;4255;48.730;9.156;2022-09-09T00:42:11;16.90;99.90
8436;DHT22;4255;48.730;9.156;2022-09-09T00:44:39;17.10;99.90
8436;DHT22;4255;48.730;9.156;2022-09-09T00:56:02;17.30;99.90
8436;DHT22;4255;48.730;9.156;2022-09-09T00:58:31;17.20;99.90
8436;DHT22;4255;48.730;9.156;2022-09-09T01:01:05;17.20;99.90
8436;DHT22;4255;48.730;9.156;2022-09-09T01:03:36;17.40;99.90
8436;DHT22;4255;48.730;9.156;2022-09-09T01:16:56;17.60;99.90
8436;DHT22;4255;48.730;9.156;2022-09-09T01:19:51;17.50;99.90
8436;DHT22;4255;48.730;9.156;2022-09-09T01:22:33;17.60;99.90
8436;DHT22;4255;48.730;9.156;2022-09-09T01:27:49;17.70;99.90
8436;DHT22;4255;48.730;9.156;2022-09-09T01:30:17;17.70;99.90
8436;DHT22;4255;48.730;9.156;2022-09-09T01:32:52;17.60;99.90
8436;DHT22;4255;48.730;9.156;2022-09-09T01:35:35;17.60;99.90
8436;DHT22;4255;48.730;9.156;2022-09-09T01:38:02;17.60;99.90
8436;DHT22;4255;48.730;9.156;2022-09-09T01:40:28;17.60;99.90
8436;DHT22;4255;48.730;9.156;2022-09-09T01:42:54;17.60;99.90
8436;DHT22;4255;48.730;9.156;2022-09-09T01:45:20;17.50;99.90
8436;DHT22;4255;48.730;9.156;2022-09-09T01:47:46;17.60;99.90
8436;DHT22;4255;48.730;9.156;2022-09-09T01:50:15;17.70;99.90
8436;DHT22;4255;48.730;9.156;2022-09-09T01:52:41;17.70;99.90
8436;DHT22;4255;48.730;9.156;2022-09-09T01:55:08;17.70;99.90
8436;DHT22;4255;48.730;9.156;2022-09-09T01:57:42;17.60;99.90
8436;DHT22;4255;48.730;9.156;2022-09-09T02:00:14;17.60;99.90
8436;DHT22;4255;48.730;9.156;2022-09-09T02:03:05;17.40;99.90
8436;DHT22;4255;48.730;9.156;2022-09-09T02:05:44;17.20;99.90
8436;DHT22;4255;48.730;9.156;2022-09-09T02:08:24;17.30;99.90
8436;DHT22;4255;48.730;9.156;2022-09-09T02:13:35;17.40;99.90
8436;DHT22;4255;48.730;9.156;2022-09-09T02:16:21;17.30;99.90
8436;DHT22;4255;48.730;9.156;2022-09-09T02:19:08;17.20;99.90
8436;DHT22;4255;48.730;9.156;2022-09-09T02:21:35;17.00;99.90
8436;DHT22;4255;48.730;9.156;2022-09-09T02:24:05;17.00;99.90
8436;DHT22;4255;48.730;9.156;2022-09-09T02:26:34;17.00;99.90
8436;DHT22;4255;48.730;9.156;2022-09-09T02:29:02;16.90;99.90
8436;DHT22;4255;48.730;9.156;2022-09-09T02:31:30;16.90;99.90
8436;DHT22;4255;48.730;9.156;2022-09-09T02:33:59;16.80;99.90
8436;DHT22;4255;48.730;9.156;2022-09-09T02:36:29;16.70;99.90
8436;DHT22;4255;48.730;9.156;2022-09-09T02:38:56;16.60;99.90
8436;DHT22;4255;48.730;9.156;2022-09-09T02:41:35;16.50;99.90
8436;DHT22;4255;48.730;9.156;2022-09-09T02:44:15;16.40;99.90
8436;DHT22;4255;48.730;9.156;2022-09-09T02:52:24;16.70;99.90
8436;DHT22;4255;48.730;9.156;2022-09-09T02:54:57;16.50;99.90
8436;DHT22;4255;48.730;9.156;2022-09-09T02:57:30;16.50;99.90
8436;DHT22;4255;48.730;9.156;2022-09-09T02:59:58;16.60;99.90
8436;DHT22;4255;48.730;9.156;2022-09-09T03:02:24;16.60;99.90
8436;DHT22;4255;48.730;9.156;2022-09-09T03:04:50;16.50;99.90
8436;DHT22;4255;48.730;9.156;2022-09-09T03:07:18;16.40;99.90
8436;DHT22;4255;48.730;9.156;2022-09-09T03:09:44;16.30;99.90
8436;DHT22;4255;48.730;9.156;2022-09-09T03:12:11;16.40;99.90
8436;DHT22;4255;48.730;9.156;2022-09-09T03:14:37;16.50;99.90
8436;DHT22;4255;48.730;9.156;2022-09-09T03:17:04;16.50;99.90
8436;DHT22;4255;48.730;9.156;2022-09-09T03:19:30;16.60;99.90
8436;DHT22;4255;48.730;9.156;2022-09-09T03:21:56;16.60;99.90
8436;DHT22;4255;48.730;9.156;2022-09-09T03:24:21;16.70;99.90
8436;DHT22;4255;48.730;9.156;2022-09-09T03:26:48;16.60;99.90
8436;DHT22;4255;48.730;9.156;2022-09-09T03:29:14;16.70;99.90
8436;DHT22;4255;48.730;9.156;2022-09-09T03:31:40;16.70;99.90
8436;DHT22;4255;48.730;9.156;2022-09-09T03:34:06;16.60;99.90
8436;DHT22;4255;48.730;9.156;2022-09-09T03:36:32;16.50;99.90
8436;DHT22;4255;48.730;9.156;2022-09-09T03:38:58;16.40;99.90
8436;DHT22;4255;48.730;9.156;2022-09-09T03:41:25;16.40;99.90
8436;DHT22;4255;48.730;9.156;2022-09-09T03:43:52;16.40;99.90
8436;DHT22;4255;48.730;9.156;2022-09-09T03:46:18;16.30;99.90
8436;DHT22;4255;48.730;9.156;2022-09-09T03:48:44;16.30;99.90
8436;DHT22;4255;48.730;9.156;2022-09-09T03:51:10;16.40;99.90
8436;DHT22;4255;48.730;9.156;2022-09-09T03:53:36;16.50;99.90
8436;DHT22;4255;48.730;9.156;2022-09-09T03:56:03;16.60;99.90
8436;DHT22;4255;48.730;9.156;2022-09-09T03:58:29;16.60;99.90
8436;DHT22;4255;48.730;9.156;2022-09-09T04:03:20;16.70;99.90
8436;DHT22;4255;48.730;9.156;2022-09-09T04:05:49;16.70;99.90
8436;DHT22;4255;48.730;9.156;2022-09-09T04:08:14;16.70;99.90
8436;DHT22;4255;48.730;9.156;2022-09-09T04:10:40;16.70;99.90
8436;DHT22;4255;48.730;9.156;2022-09-09T04:13:07;16.60;99.90
8436;DHT22;4255;48.730;9.156;2022-09-09T04:15:33;16.70;99.90
8436;DHT22;4255;48.730;9.156;2022-09-09T04:18:00;16.70;99.90
8436;DHT22;4255;48.730;9.156;2022-09-09T04:20:26;16.70;99.90
8436;DHT22;4255;48.730;9.156;2022-09-09T04:22:52;16.70;99.90
8436;DHT22;4255;48.730;9.156;2022-09-09T04:25:17;16.60;99.90
8436;DHT22;4255;48.730;9.156;2022-09-09T04:27:43;16.50;99.90
8436;DHT22;4255;48.730;9.156;2022-09-09T04:30:10;16.30;99.90
8436;DHT22;4255;48.730;9.156;2022-09-09T04:32:35;16.30;99.90
8436;DHT22;4255;48.730;9.156;2022-09-09T04:35:02;16.20;99.90
8436;DHT22;4255;48.730;9.156;2022-09-09T04:37:28;16.10;99.90
8436;DHT22;4255;48.730;9.156;2022-09-09T04:39:54;16.10;99.90
8436;DHT22;4255;48.730;9.156;2022-09-09T04:42:19;16.10;99.90
8436;DHT22;4255;48.730;9.156;2022-09-09T04:44:45;16.10;99.90
8436;DHT22;4255;48.730;9.156;2022-09-09T04:47:11;16.20;99.90
8436;DHT22;4255;48.730;9.156;2022-09-09T04:49:37;16.10;99.90
8436;DHT22;4255;48.730;9.156;2022-09-09T04:52:04;16.30;99.90
8436;DHT22;4255;48.730;9.156;2022-09-09T04:54:30;16.30;99.90
8436;DHT22;4255;48.730;9.156;2022-09-09T04:56:55;16.20;99.90
8436;DHT22;4255;48.730;9.156;2022-09-09T04:59:21;16.20;99.90
8436;DHT22;4255;48.730;9.156;2022-09-09T05:01:48;16.20;99.90
8436;DHT22;4255;48.730;9.156;2022-09-09T05:04:15;16.20;99.90
8436;DHT22;4255;48.730;9.156;2022-09-09T05:06:41;16.10;99.90
8436;DHT22;4255;48.730;9.156;2022-09-09T05:09:08;16.00;99.90
8436;DHT22;4255;48.730;9.156;2022-09-09T05:11:34;15.70;99.90
8436;DHT22;4255;48.730;9.156;2022-09-09T05:14:02;15.70;99.90
8436;DHT22;4255;48.730;9.156;2022-09-09T05:16:28;15.60;99.90
8436;DHT22;4255;48.730;9.156;2022-09-09T05:18:53;15.70;99.90
8436;DHT22;4255;48.730;9.156;2022-09-09T05:21:21;15.60;99.90
8436;DHT22;4255;48.730;9.156;2022-09-09T05:23:47;15.80;99.90
8436;DHT22;4255;48.730;9.156;2022-09-09T05:26:15;15.80;99.90
8436;DHT22;4255;48.730;9.156;2022-09-09T05:28:41;15.90;99.90
8436;DHT22;4255;48.730;9.156;2022-09-09T05:31:08;16.00;99.90
8436;DHT22;4255;48.730;9.156;2022-09-09T05:33:37;16.30;99.90
8436;DHT22;4255;48.730;9.156;2022-09-09T05:36:08;16.40;99.90
8436;DHT22;4255;48.730;9.156;2022-09-09T05:38:34;16.50;99.90
8436;DHT22;4255;48.730;9.156;2022-09-09T05:41:02;16.60;99.90
8436;DHT22;4255;48.730;9.156;2022-09-09T05:43:28;16.80;99.90
8436;DHT22;4255;48.730;9.156;2022-09-09T05:46:04;16.90;99.90
8436;DHT22;4255;48.730;9.156;2022-09-09T05:48:32;17.10;99.90
8436;DHT22;4255;48.730;9.156;2022-09-09T05:50:59;17.20;99.90
8436;DHT22;4255;48.730;9.156;2022-09-09T05:53:25;17.10;99.90
8436;DHT22;4255;48.730;9.156;2022-09-09T05:56:01;17.10;99.90
8436;DHT22;4255;48.730;9.156;2022-09-09T05:58:29;17.00;99.90
8436;DHT22;4255;48.730;9.156;2022-09-09T06:01:04;16.90;99.90
8436;DHT22;4255;48.730;9.156;2022-09-09T06:03:30;16.80;99.90
8436;DHT22;4255;48.730;9.156;2022-09-09T06:06:03;16.90;99.90
8436;DHT22;4255;48.730;9.156;2022-09-09T06:08:36;17.00;99.90
8436;DHT22;4255;48.730;9.156;2022-09-09T06:11:11;17.10;99.90
8436;DHT22;4255;48.730;9.156;2022-09-09T06:13:38;17.10;99.90
8436;DHT22;4255;48.730;9.156;2022-09-09T06:16:05;17.10;99.90
8436;DHT22;4255;48.730;9.156;2022-09-09T06:18:32;17.10;99.90
8436;DHT22;4255;48.730;9.156;2022-09-09T06:21:03;17.10;99.90
8436;DHT22;4255;48.730;9.156;2022-09-09T06:23:30;17.10;99.90
8436;DHT22;4255;48.730;9.156;2022-09-09T06:26:15;16.90;99.90
8436;DHT22;4255;48.730;9.156;2022-09-09T06:28:44;17.10;99.90
8436;DHT22;4255;48.730;9.156;2022-09-09T06:31:12;17.20;99.90
8436;DHT22;4255;48.730;9.156;2022-09-09T06:33:40;17.40;99.90
8436;DHT22;4255;48.730;9.156;2022-09-09T06:36:10;17.50;99.90
8436;DHT22;4255;48.730;9.156;2022-09-09T06:38:36;17.40;99.90
8436;DHT22;4255;48.730;9.156;2022-09-09T06:41:02;17.60;99.90
8436;DHT22;4255;48.730;9.156;2022-09-09T06:43:28;17.60;99.90
8436;DHT22;4255;48.730;9.156;2022-09-09T06:45:55;17.80;99.90
8436;DHT22;4255;48.730;9.156;2022-09-09T06:48:21;17.90;99.90
8436;DHT22;4255;48.730;9.156;2022-09-09T06:50:46;18.00;99.90
8436;DHT22;4255;48.730;9.156;2022-09-09T06:53:12;18.20;99.90
8436;DHT22;4255;48.730;9.156;2022-09-09T06:55:38;18.30;99.90
8436;DHT22;4255;48.730;9.156;2022-09-09T06:58:08;18.50;99.90
8436;DHT22;4255;48.730;9.156;2022-09-09T07:00:34;18.50;99.90
8436;DHT22;4255;48.730;9.156;2022-09-09T07:02:59;18.60;99.90
8436;DHT22;4255;48.730;9.156;2022-09-09T07:05:25;18.50;99.90
8436;DHT22;4255;48.730;9.156;2022-09-09T07:07:51;18.60;99.90
8436;DHT22;4255;48.730;9.156;2022-09-09T07:10:17;18.70;99.90
8436;DHT22;4255;48.730;9.156;2022-09-09T07:12:43;19.00;99.90
8436;DHT22;4255;48.730;9.156;2022-09-09T07:15:09;19.00;99.90
8436;DHT22;4255;48.730;9.156;2022-09-09T07:17:35;19.20;99.90
8436;DHT22;4255;48.730;9.156;2022-09-09T07:20:01;19.20;99.90
8436;DHT22;4255;48.730;9.156;2022-09-09T07:22:29;19.20;99.90
8436;DHT22;4255;48.730;9.156;2022-09-09T07:24:54;19.20;99.90
8436;DHT22;4255;48.730;9.156;2022-09-09T07:27:20;19.30;99.90
8436;DHT22;4255;48.730;9.156;2022-09-09T07:29:46;19.20;99.90
8436;DHT22;4255;48.730;9.156;2022-09-09T07:32:12;19.20;99.90
8436;DHT22;4255;48.730;9.156;2022-09-09T07:34:37;19.20;99.90
8436;DHT22;4255;48.730;9.156;2022-09-09T07:37:03;18.90;99.90
8436;DHT22;4255;48.730;9.156;2022-09-09T07:39:28;19.00;99.90
8436;DHT22;4255;48.730;9.156;2022-09-09T07:41:54;19.20;99.90
8436;DHT22;4255;48.730;9.156;2022-09-09T07:44:22;19.40;99.90
8436;DHT22;4255;48.730;9.156;2022-09-09T07:46:48;19.80;99.90
8436;DHT22;4255;48.730;9.156;2022-09-09T07:49:15;19.80;99.90
8436;DHT22;4255;48.730;9.156;2022-09-09T07:51:43;20.00;99.90
8436;DHT22;4255;48.730;9.156;2022-09-09T07:54:12;20.00;99.90
8436;DHT22;4255;48.730;9.156;2022-09-09T07:56:39;19.70;99.90
8436;DHT22;4255;48.730;9.156;2022-09-09T07:59:05;19.80;99.90
8436;DHT22;4255;48.730;9.156;2022-09-09T08:01:37;20.10;99.90
8436;DHT22;4255;48.730;9.156;2022-09-09T08:04:09;20.20;99.90
8436;DHT22;4255;48.730;9.156;2022-09-09T08:06:38;20.40;99.90
8436;DHT22;4255;48.730;9.156;2022-09-09T08:09:06;20.40;99.90
8436;DHT22;4255;48.730;9.156;2022-09-09T08:11:32;20.30;99.90
8436;DHT22;4255;48.730;9.156;2022-09-09T08:13:59;20.20;99.90
8436;DHT22;4255;48.730;9.156;2022-09-09T08:16:31;20.30;99.90
8436;DHT22;4255;48.730;9.156;2022-09-09T08:18:57;20.30;99.90
8436;DHT22;4255;48.730;9.156;2022-09-09T08:21:28;20.30;99.90
8436;DHT22;4255;48.730;9.156;2022-09-09T08:23:55;20.40;99.90
8436;DHT22;4255;48.730;9.156;2022-09-09T08:26:23;20.50;99.90
8436;DHT22;4255;48.730;9.156;2022-09-09T08:28:50;20.60;99.90
8436;DHT22;4255;48.730;9.156;2022-09-09T08:31:32;20.70;99.90
8436;DHT22;4255;48.730;9.156;2022-09-09T08:33:59;20.80;99.90
8436;DHT22;4255;48.730;9.156;2022-09-09T08:36:26;20.80;99.90
8436;DHT22;4255;48.730;9.156;2022-09-09T08:38:54;20.70;99.90
8436;DHT22;4255;48.730;9.156;2022-09-09T08:55:37;21.10;99.90
8436;DHT22;4255;48.730;9.156;2022-09-09T09:03:30;21.30;99.90
8436;DHT22;4255;48.730;9.156;2022-09-09T09:06:18;21.30;99.90
8436;DHT22;4255;48.730;9.156;2022-09-09T09:11:53;21.40;99.90
8436;DHT22;4255;48.730;9.156;2022-09-09T09:14:27;21.50;99.90
8436;DHT22;4255;48.730;9.156;2022-09-09T09:16:56;21.40;99.90
8436;DHT22;4255;48.730;9.156;2022-09-09T09:19:23;21.30;99.90
8436;DHT22;4255;48.730;9.156;2022-09-09T09:27:15;19.70;99.90
8436;DHT22;4255;48.730;9.156;2022-09-09T09:29:42;19.00;99.90
8436;DHT22;4255;48.730;9.156;2022-09-09T09:32:13;18.30;99.90
8436;DHT22;4255;48.730;9.156;2022-09-09T09:34:40;18.10;99.90
8436;DHT22;4255;48.730;9.156;2022-09-09T09:37:15;18.00;99.90
8436;DHT22;4255;48.730;9.156;2022-09-09T09:39:42;17.90;99.90
8436;DHT22;4255;48.730;9.156;2022-09-09T09:42:17;18.10;99.90
8436;DHT22;4255;48.730;9.156;2022-09-09T09:44:43;18.50;99.90
8436;DHT22;4255;48.730;9.156;2022-09-09T09:47:15;19.00;99.90
8436;DHT22;4255;48.730;9.156;2022-09-09T09:50:02;19.30;99.90
8436;DHT22;4255;48.730;9.156;2022-09-09T09:52:30;19.40;99.90
8436;DHT22;4255;48.730;9.156;2022-09-09T09:54:57;19.70;99.90
8436;DHT22;4255;48.730;9.156;2022-09-09T09:57:28;20.10;99.90
8436;DHT22;4255;48.730;9.156;2022-09-09T10:00:12;20.50;99.90
8436;DHT22;4255;48.730;9.156;2022-09-09T10:02:40;20.90;99.90
8436;DHT22;4255;48.730;9.156;2022-09-09T10:05:18;21.00;99.90
8436;DHT22;4255;48.730;9.156;2022-09-09T10:07:44;21.20;99.90
8436;DHT22;4255;48.730;9.156;2022-09-09T10:11:20;21.30;99.90
8436;DHT22;4255;48.730;9.156;2022-09-09T10:19:18;22.10;99.90
8436;DHT22;4255;48.730;9.156;2022-09-09T10:24:58;22.30;99.90
8436;DHT22;4255;48.730;9.156;2022-09-09T10:30:29;22.50;99.90
8436;DHT22;4255;48.730;9.156;2022-09-09T10:33:09;22.40;99.90
8436;DHT22;4255;48.730;9.156;2022-09-09T10:38:42;22.50;99.90
8436;DHT22;4255;48.730;9.156;2022-09-09T10:44:53;22.80;99.90
8436;DHT22;4255;48.730;9.156;2022-09-09T10:52:32;23.10;99.90
8436;DHT22;4255;48.730;9.156;2022-09-09T11:00:24;23.50;99.90
8436;DHT22;4255;48.730;9.156;2022-09-09T11:03:01;23.80;99.90
8436;DHT22;4255;48.730;9.156;2022-09-09T11:05:44;23.60;99.90
8436;DHT22;4255;48.730;9.156;2022-09-09T11:08:18;23.60;99.90
8436;DHT22;4255;48.730;9.156;2022-09-09T11:11:03;23.20;99.90
8436;DHT22;4255;48.730;9.156;2022-09-09T11:14:22;23.00;99.90
8436;DHT22;4255;48.730;9.156;2022-09-09T11:16:59;23.00;99.90
8436;DHT22;4255;48.730;9.156;2022-09-09T11:19:42;22.40;99.90
8436;DHT22;4255;48.730;9.156;2022-09-09T11:25:05;21.90;99.90
8436;DHT22;4255;48.730;9.156;2022-09-09T11:27:39;21.60;99.90
8436;DHT22;4255;48.730;9.156;2022-09-09T11:30:19;21.20;99.90
8436;DHT22;4255;48.730;9.156;2022-09-09T11:35:42;20.10;99.90
8436;DHT22;4255;48.730;9.156;2022-09-09T11:41:05;19.60;99.90
8436;DHT22;4255;48.730;9.156;2022-09-09T11:43:44;19.90;99.90
8436;DHT22;4255;48.730;9.156;2022-09-09T11:46:13;19.90;99.90
8436;DHT22;4255;48.730;9.156;2022-09-09T11:48:45;19.80;99.90
8436;DHT22;4255;48.730;9.156;2022-09-09T11:53:58;19.90;99.90
8436;DHT22;4255;48.730;9.156;2022-09-09T11:59:03;20.10;99.90
8436;DHT22;4255;48.730;9.156;2022-09-09T12:01:40;20.70;99.90
8436;DHT22;4255;48.730;9.156;2022-09-09T12:06:44;21.20;99.90
8436;DHT22;4255;48.730;9.156;2022-09-09T12:11:46;20.40;99.90
8436;DHT22;4255;48.730;9.156;2022-09-09T12:14:35;20.30;99.90
8436;DHT22;4255;48.730;9.156;2022-09-09T12:17:22;20.60;99.90
8436;DHT22;4255;48.730;9.156;2022-09-09T12:19:59;21.10;99.90
8436;DHT22;4255;48.730;9.156;2022-09-09T12:25:48;22.10;99.90
8436;DHT22;4255;48.730;9.156;2022-09-09T12:28:19;22.30;99.90
8436;DHT22;4255;48.730;9.156;2022-09-09T12:33:17;22.40;99.90
8436;DHT22;4255;48.730;9.156;2022-09-09T12:35:47;22.00;99.90
8436;DHT22;4255;48.730;9.156;2022-09-09T12:38:21;21.70;99.90
8436;DHT22;4255;48.730;9.156;2022-09-09T12:40:58;21.60;99.90
8436;DHT22;4255;48.730;9.156;2022-09-09T12:43:26;21.30;99.90
8436;DHT22;4255;48.730;9.156;2022-09-09T12:45:59;21.20;99.90
8436;DHT22;4255;48.730;9.156;2022-09-09T12:48:38;21.20;99.90
8436;DHT22;4255;48.730;9.156;2022-09-09T12:51:07;21.20;99.90
8436;DHT22;4255;48.730;9.156;2022-09-09T12:53:41;21.20;99.90
8436;DHT22;4255;48.730;9.156;2022-09-09T12:56:09;21.40;99.90
8436;DHT22;4255;48.730;9.156;2022-09-09T12:58:46;21.50;99.90
8436;DHT22;4255;48.730;9.156;2022-09-09T13:01:30;21.80;99.90
8436;DHT22;4255;48.730;9.156;2022-09-09T13:03:57;21.60;99.90
8436;DHT22;4255;48.730;9.156;2022-09-09T13:06:30;21.60;99.90
8436;DHT22;4255;48.730;9.156;2022-09-09T13:09:00;21.60;99.90
8436;DHT22;4255;48.730;9.156;2022-09-09T13:11:31;21.60;99.90
8436;DHT22;4255;48.730;9.156;2022-09-09T13:14:00;21.50;99.90
8436;DHT22;4255;48.730;9.156;2022-09-09T13:16:32;21.30;99.90
8436;DHT22;4255;48.730;9.156;2022-09-09T13:19:09;21.20;99.90
8436;DHT22;4255;48.730;9.156;2022-09-09T13:21:39;21.30;99.90
8436;DHT22;4255;48.730;9.156;2022-09-09T13:24:07;21.60;99.90
8436;DHT22;4255;48.730;9.156;2022-09-09T13:26:58;21.70;99.90
8436;DHT22;4255;48.730;9.156;2022-09-09T13:29:23;21.80;99.90
8436;DHT22;4255;48.730;9.156;2022-09-09T13:31:50;22.20;99.90
8436;DHT22;4255;48.730;9.156;2022-09-09T13:34:30;22.60;99.90
8436;DHT22;4255;48.730;9.156;2022-09-09T13:37:02;22.60;99.90
8436;DHT22;4255;48.730;9.156;2022-09-09T13:39:33;22.50;99.90
8436;DHT22;4255;48.730;9.156;2022-09-09T13:41:59;22.20;99.90
8436;DHT22;4255;48.730;9.156;2022-09-09T13:44:26;21.90;99.90
8436;DHT22;4255;48.730;9.156;2022-09-09T13:47:18;21.40;99.90
8436;DHT22;4255;48.730;9.156;2022-09-09T13:49:53;21.50;99.90
8436;DHT22;4255;48.730;9.156;2022-09-09T13:52:19;21.50;99.90
8436;DHT22;4255;48.730;9.156;2022-09-09T13:54:49;22.00;99.90
8436;DHT22;4255;48.730;9.156;2022-09-09T13:57:23;22.50;99.90
8436;DHT22;4255;48.730;9.156;2022-09-09T13:59:52;22.70;99.90
8436;DHT22;4255;48.730;9.156;2022-09-09T14:02:18;22.50;99.90
8436;DHT22;4255;48.730;9.156;2022-09-09T14:04:44;22.40;99.90
8436;DHT22;4255;48.730;9.156;2022-09-09T14:07:14;22.60;99.90
8436;DHT22;4255;48.730;9.156;2022-09-09T14:09:41;22.80;99.90
8436;DHT22;4255;48.730;9.156;2022-09-09T14:12:11;22.60;99.90
8436;DHT22;4255;48.730;9.156;2022-09-09T14:14:37;22.30;99.90
8436;DHT22;4255;48.730;9.156;2022-09-09T14:17:03;22.50;99.90
8436;DHT22;4255;48.730;9.156;2022-09-09T14:19:29;22.60;99.90
8436;DHT22;4255;48.730;9.156;2022-09-09T14:21:56;22.50;99.90
8436;DHT22;4255;48.730;9.156;2022-09-09T14:24:22;22.40;99.90
8436;DHT22;4255;48.730;9.156;2022-09-09T14:26:48;22.70;99.90
8436;DHT22;4255;48.730;9.156;2022-09-09T14:29:13;22.60;99.90
8436;DHT22;4255;48.730;9.156;2022-09-09T14:31:39;22.50;99.90
8436;DHT22;4255;48.730;9.156;2022-09-09T14:34:05;22.60;99.90
8436;DHT22;4255;48.730;9.156;2022-09-09T14:36:31;22.60;99.90
8436;DHT22;4255;48.730;9.156;2022-09-09T14:38:57;22.70;99.90
8436;DHT22;4255;48.730;9.156;2022-09-09T14:41:23;22.70;99.90
8436;DHT22;4255;48.730;9.156;2022-09-09T14:43:50;22.70;99.90
8436;DHT22;4255;48.730;9.156;2022-09-09T14:46:18;22.60;99.90
8436;DHT22;4255;48.730;9.156;2022-09-09T14:48:44;22.50;99.90
8436;DHT22;4255;48.730;9.156;2022-09-09T14:51:16;22.20;99.90
8436;DHT22;4255;48.730;9.156;2022-09-09T14:53:43;22.30;99.90
8436;DHT22;4255;48.730;9.156;2022-09-09T14:56:18;22.50;99.90
8436;DHT22;4255;48.730;9.156;2022-09-09T14:58:44;22.70;99.90
8436;DHT22;4255;48.730;9.156;2022-09-09T15:01:15;22.70;99.90
8436;DHT22;4255;48.730;9.156;2022-09-09T15:03:42;22.50;99.90
8436;DHT22;4255;48.730;9.156;2022-09-09T15:06:11;22.70;99.90
8436;DHT22;4255;48.730;9.156;2022-09-09T15:08:38;22.90;99.90
8436;DHT22;4255;48.730;9.156;2022-09-09T15:11:06;22.90;99.90
8436;DHT22;4255;48.730;9.156;2022-09-09T15:13:36;22.70;99.90
8436;DHT22;4255;48.730;9.156;2022-09-09T15:16:14;22.50;99.90
8436;DHT22;4255;48.730;9.156;2022-09-09T15:18:40;22.40;99.90
8436;DHT22;4255;48.730;9.156;2022-09-09T15:21:09;22.20;99.90
8436;DHT22;4255;48.730;9.156;2022-09-09T15:23:35;21.80;99.90
8436;DHT22;4255;48.730;9.156;2022-09-09T15:26:01;21.80;99.90
8436;DHT22;4255;48.730;9.156;2022-09-09T15:28:27;22.10;99.90
8436;DHT22;4255;48.730;9.156;2022-09-09T15:30:54;22.20;99.90
8436;DHT22;4255;48.730;9.156;2022-09-09T15:33:21;22.10;99.90
8436;DHT22;4255;48.730;9.156;2022-09-09T15:35:47;22.40;99.90
8436;DHT22;4255;48.730;9.156;2022-09-09T15:38:13;22.60;99.90
8436;DHT22;4255;48.730;9.156;2022-09-09T15:40:40;22.90;99.90
8436;DHT22;4255;48.730;9.156;2022-09-09T15:43:06;23.00;99.90
8436;DHT22;4255;48.730;9.156;2022-09-09T15:45:33;22.70;99.90
8436;DHT22;4255;48.730;9.156;2022-09-09T15:48:00;22.40;99.90
8436;DHT22;4255;48.730;9.156;2022-09-09T15:50:26;21.90;99.90
8436;DHT22;4255;48.730;9.156;2022-09-09T15:52:52;21.60;99.90
8436;DHT22;4255;48.730;9.156;2022-09-09T15:55:19;21.50;99.90
8436;DHT22;4255;48.730;9.156;2022-09-09T15:57:45;21.50;99.90
8436;DHT22;4255;48.730;9.156;2022-09-09T16:00:12;21.70;99.90
8436;DHT22;4255;48.730;9.156;2022-09-09T16:02:38;21.50;99.90
8436;DHT22;4255;48.730;9.156;2022-09-09T16:05:05;21.30;99.90
8436;DHT22;4255;48.730;9.156;2022-09-09T16:07:30;21.20;99.90
8436;DHT22;4255;48.730;9.156;2022-09-09T16:09:56;21.20;99.90
8436;DHT22;4255;48.730;9.156;2022-09-09T16:12:21;21.10;99.90
8436;DHT22;4255;48.730;9.156;2022-09-09T16:14:47;21.10;99.90
8436;DHT22;4255;48.730;9.156;2022-09-09T16:17:13;21.00;99.90
8436;DHT22;4255;48.730;9.156;2022-09-09T16:19:39;21.10;99.90
8436;DHT22;4255;48.730;9.156;2022-09-09T16:22:05;21.10;99.90
8436;DHT22;4255;48.730;9.156;2022-09-09T16:24:32;21.10;99.90
8436;DHT22;4255;48.730;9.156;2022-09-09T16:26:58;21.00;99.90
8436;DHT22;4255;48.730;9.156;2022-09-09T16:29:24;20.80;99.90
8436;DHT22;4255;48.730;9.156;2022-09-09T16:31:53;20.60;99.90
8436;DHT22;4255;48.730;9.156;2022-09-09T16:34:19;20.40;99.90
8436;DHT22;4255;48.730;9.156;2022-09-09T16:36:47;20.30;99.90
8436;DHT22;4255;48.730;9.156;2022-09-09T16:39:18;20.30;99.90
8436;DHT22;4255;48.730;9.156;2022-09-09T16:41:45;20.20;99.90
8436;DHT22;4255;48.730;9.156;2022-09-09T16:44:13;20.00;99.90
8436;DHT22;4255;48.730;9.156;2022-09-09T16:46:42;19.70;99.90
8436;DHT22;4255;48.730;9.156;2022-09-09T16:49:10;19.60;99.90
8436;DHT22;4255;48.730;9.156;2022-09-09T16:51:45;19.50;99.90
8436;DHT22;4255;48.730;9.156;2022-09-09T16:54:12;19.40;99.90
8436;DHT22;4255;48.730;9.156;2022-09-09T16:56:40;19.30;99.90
8436;DHT22;4255;48.730;9.156;2022-09-09T16:59:18;19.20;99.90
8436;DHT22;4255;48.730;9.156;2022-09-09T17:01:45;19.20;99.90
8436;DHT22;4255;48.730;9.156;2022-09-09T17:04:13;19.20;99.90
8436;DHT22;4255;48.730;9.156;2022-09-09T17:06:40;19.10;99.90
8436;DHT22;4255;48.730;9.156;2022-09-09T17:09:10;19.20;99.90
8436;DHT22;4255;48.730;9.156;2022-09-09T17:11:37;19.20;99.90
8436;DHT22;4255;48.730;9.156;2022-09-09T17:14:03;19.30;99.90
8436;DHT22;4255;48.730;9.156;2022-09-09T17:16:31;19.20;99.90
8436;DHT22;4255;48.730;9.156;2022-09-09T17:18:59;19.20;99.90
8436;DHT22;4255;48.730;9.156;2022-09-09T17:21:27;19.00;99.90
8436;DHT22;4255;48.730;9.156;2022-09-09T17:23:54;18.90;99.90
8436;DHT22;4255;48.730;9.156;2022-09-09T17:26:21;18.90;99.90
8436;DHT22;4255;48.730;9.156;2022-09-09T17:28:47;19.00;99.90
8436;DHT22;4255;48.730;9.156;2022-09-09T17:31:16;18.90;99.90
8436;DHT22;4255;48.730;9.156;2022-09-09T17:33:44;19.00;99.90
8436;DHT22;4255;48.730;9.156;2022-09-09T17:36:16;19.00;99.90
8436;DHT22;4255;48.730;9.156;2022-09-09T17:38:42;18.90;99.90
8436;DHT22;4255;48.730;9.156;2022-09-09T17:41:29;18.80;99.90
8436;DHT22;4255;48.730;9.156;2022-09-09T17:43:55;18.70;99.90
8436;DHT22;4255;48.730;9.156;2022-09-09T17:48:55;18.70;99.90
8436;DHT22;4255;48.730;9.156;2022-09-09T17:51:24;18.60;99.90
8436;DHT22;4255;48.730;9.156;2022-09-09T17:53:53;18.40;99.90
8436;DHT22;4255;48.730;9.156;2022-09-09T17:56:21;18.40;99.90
8436;DHT22;4255;48.730;9.156;2022-09-09T17:58:48;18.40;99.90
8436;DHT22;4255;48.730;9.156;2022-09-09T18:01:19;18.40;99.90
8436;DHT22;4255;48.730;9.156;2022-09-09T18:03:46;18.60;99.90
8436;DHT22;4255;48.730;9.156;2022-09-09T18:06:21;18.80;99.90
8436;DHT22;4255;48.730;9.156;2022-09-09T18:09:02;19.00;99.90
8436;DHT22;4255;48.730;9.156;2022-09-09T18:11:31;19.10;99.90
8436;DHT22;4255;48.730;9.156;2022-09-09T18:13:59;19.00;99.90
8436;DHT22;4255;48.730;9.156;2022-09-09T18:16:26;19.00;99.90
8436;DHT22;4255;48.730;9.156;2022-09-09T18:18:54;19.10;99.90
8436;DHT22;4255;48.730;9.156;2022-09-09T18:21:22;19.20;99.90
8436;DHT22;4255;48.730;9.156;2022-09-09T18:23:50;19.10;99.90
8436;DHT22;4255;48.730;9.156;2022-09-09T18:26:19;19.30;99.90
8436;DHT22;4255;48.730;9.156;2022-09-09T18:28:54;19.30;99.90
8436;DHT22;4255;48.730;9.156;2022-09-09T18:31:21;19.10;99.90